createdAt,value
2023-04-14T00:00:52.271Z,2.90
2023-04-14T00:03:19.218Z,3.50
2023-04-14T00:05:46.038Z,3.00
2023-04-14T00:08:12.693Z,3.10
2023-04-14T00:10:40.629Z,3.40
2023-04-14T00:13:07.306Z,3.03
2023-04-14T00:15:33.954Z,2.80
2023-04-14T00:18:00.636Z,3.07
2023-04-14T00:20:27.348Z,3.57
2023-04-14T00:22:53.999Z,2.83
2023-04-14T00:25:20.633Z,2.60
2023-04-14T00:27:48.652Z,2.80
2023-04-14T00:30:15.348Z,3.27
2023-04-14T00:32:42.036Z,3.10
2023-04-14T00:35:09.143Z,2.47
2023-04-14T00:37:35.815Z,3.20
2023-04-14T00:40:02.462Z,3.20
2023-04-14T00:42:29.149Z,3.33
2023-04-14T00:44:57.239Z,3.30
2023-04-14T00:47:24.132Z,3.43
2023-04-14T00:49:51.258Z,3.10
2023-04-14T00:52:18.936Z,2.87
2023-04-14T00:54:45.727Z,2.80
2023-04-14T00:57:12.426Z,2.70
2023-04-14T00:59:39.196Z,3.03
2023-04-14T01:02:07.344Z,2.90
2023-04-14T01:04:49.646Z,3.33
2023-04-14T01:07:21.502Z,2.90
2023-04-14T01:09:48.326Z,3.80
2023-04-14T01:12:24.544Z,3.13
2023-04-14T01:14:59.256Z,3.60
2023-04-14T01:17:32.575Z,3.47
2023-04-14T01:20:09.490Z,3.40
2023-04-14T01:22:40.607Z,4.07
2023-04-14T01:25:22.348Z,3.90
2023-04-14T01:28:13.986Z,3.40
2023-04-14T01:31:02.346Z,3.40
2023-04-14T01:33:36.505Z,2.30
2023-04-14T01:36:10.060Z,3.63
2023-04-14T01:38:39.686Z,3.00
2023-04-14T01:41:09.496Z,3.00
2023-04-14T01:43:40.327Z,3.30
2023-04-14T01:46:10.075Z,3.63
2023-04-14T01:48:38.338Z,3.77
2023-04-14T01:51:07.319Z,4.80
2023-04-14T01:53:37.981Z,3.20
2023-04-14T01:56:07.919Z,2.90
2023-04-14T01:58:35.777Z,2.90
2023-04-14T02:01:02.820Z,3.50
2023-04-14T02:03:31.346Z,3.50
2023-04-14T02:06:02.981Z,3.33
2023-04-14T02:08:31.619Z,3.07
2023-04-14T02:11:00.439Z,3.80
2023-04-14T02:13:28.572Z,3.80
2023-04-14T02:15:57.583Z,4.53
2023-04-14T02:18:25.584Z,3.50
2023-04-14T02:20:55.803Z,3.60
2023-04-14T02:23:23.939Z,4.40
2023-04-14T02:25:54.962Z,3.80
2023-04-14T02:28:27.951Z,3.50
2023-04-14T02:30:57.585Z,4.20
2023-04-14T02:33:29.177Z,3.43
2023-04-14T02:36:01.185Z,3.77
2023-04-14T02:38:35.664Z,3.83
2023-04-14T02:41:08.154Z,4.00
2023-04-14T02:43:41.453Z,3.50
2023-04-14T02:46:11.411Z,3.70
2023-04-14T02:48:39.420Z,4.30
2023-04-14T02:51:08.189Z,4.50
2023-04-14T02:53:36.413Z,3.67
2023-04-14T02:56:04.310Z,4.70
2023-04-14T02:58:31.788Z,4.37
2023-04-14T03:00:59.316Z,4.80
2023-04-14T03:03:27.456Z,4.50
2023-04-14T03:05:54.579Z,4.57
2023-04-14T03:08:21.860Z,5.07
2023-04-14T03:10:51.589Z,3.93
2023-04-14T03:13:19.144Z,4.30
2023-04-14T03:15:46.557Z,4.57
2023-04-14T03:18:15.240Z,4.23
2023-04-14T03:20:42.572Z,4.50
2023-04-14T03:23:10.480Z,3.60
2023-04-14T03:25:38.409Z,4.27
2023-04-14T03:28:09.707Z,3.40
2023-04-14T03:30:41.739Z,3.60
2023-04-14T03:33:10.799Z,3.80
2023-04-14T03:35:38.110Z,4.23
2023-04-14T03:38:05.626Z,4.53
2023-04-14T03:40:34.947Z,4.50
2023-04-14T03:43:03.415Z,4.50
2023-04-14T03:45:31.490Z,4.73
2023-04-14T03:48:03.197Z,4.10
2023-04-14T03:50:34.312Z,5.30
2023-04-14T03:53:01.081Z,4.50
2023-04-14T03:55:30.912Z,4.50
2023-04-14T03:57:59.943Z,4.47
2023-04-14T04:00:27.711Z,4.47
2023-04-14T04:02:57.305Z,4.40
2023-04-14T04:05:24.641Z,4.80
2023-04-14T04:07:52.402Z,3.93
2023-04-14T04:10:19.882Z,4.03
2023-04-14T04:12:48.700Z,4.70
2023-04-14T04:15:15.741Z,4.77
2023-04-14T04:17:43.172Z,5.03
2023-04-14T04:20:14.048Z,5.30
2023-04-14T04:22:43.035Z,4.37
2023-04-14T04:25:11.580Z,4.60
2023-04-14T04:27:38.376Z,4.60
2023-04-14T04:30:07.914Z,5.10
2023-04-14T04:32:36.410Z,4.40
2023-04-14T04:35:04.798Z,5.10
2023-04-14T04:37:33.103Z,4.30
2023-04-14T04:39:59.795Z,5.00
2023-04-14T04:42:26.671Z,4.80
2023-04-14T04:44:53.366Z,5.13
2023-04-14T04:47:20.112Z,4.43
2023-04-14T04:49:46.776Z,4.57
2023-04-14T04:52:13.423Z,4.83
2023-04-14T04:54:41.810Z,5.67
2023-04-14T04:57:08.483Z,4.80
2023-04-14T04:59:37.858Z,5.30
2023-04-14T05:02:04.818Z,5.13
2023-04-14T05:04:31.526Z,5.60
2023-04-14T05:06:58.221Z,5.97
2023-04-14T05:09:24.888Z,5.23
2023-04-14T05:11:52.909Z,5.20
2023-04-14T05:14:19.583Z,4.97
2023-04-14T05:16:46.258Z,5.73
2023-04-14T05:19:12.889Z,6.27
2023-04-14T05:21:39.557Z,6.00
2023-04-14T05:24:08.495Z,5.30
2023-04-14T05:26:57.840Z,6.60
2023-04-14T05:29:23.244Z,6.20
2023-04-14T05:31:49.966Z,5.97
2023-04-14T05:34:16.636Z,6.57
2023-04-14T05:36:43.315Z,6.20
2023-04-14T05:39:09.994Z,6.90
2023-04-14T05:41:36.718Z,6.80
2023-04-14T05:44:03.793Z,6.77
2023-04-14T05:46:32.150Z,6.30
2023-04-14T05:48:58.967Z,5.40
2023-04-14T05:51:25.715Z,6.43
2023-04-14T05:53:52.356Z,6.80
2023-04-14T05:56:19.069Z,5.67
2023-04-14T05:58:45.779Z,6.30
2023-04-14T06:01:12.484Z,6.10
2023-04-14T06:03:40.938Z,6.03
2023-04-14T06:06:07.942Z,6.33
2023-04-14T06:08:34.646Z,6.17
2023-04-14T06:11:01.320Z,5.43
2023-04-14T06:13:31.136Z,5.60
2023-04-14T06:15:58.788Z,5.70
2023-04-14T06:18:25.452Z,6.60
2023-04-14T06:20:53.433Z,6.10
2023-04-14T06:23:20.157Z,6.00
2023-04-14T06:25:46.983Z,5.90
2023-04-14T06:28:13.641Z,6.83
2023-04-14T06:30:40.310Z,6.50
2023-04-14T06:33:06.993Z,6.40
2023-04-14T06:35:34.190Z,5.77
2023-04-14T06:38:02.564Z,6.00
2023-04-14T06:40:29.401Z,5.70
2023-04-14T06:42:56.151Z,5.70
2023-04-14T06:45:22.789Z,7.40
2023-04-14T06:47:49.643Z,6.43
2023-04-14T06:50:16.569Z,6.33
2023-04-14T06:52:43.269Z,6.37
2023-04-14T06:55:11.526Z,6.50
2023-04-14T06:57:38.181Z,6.40
2023-04-14T07:00:08.941Z,5.73
2023-04-14T07:02:35.739Z,6.37
2023-04-14T07:05:02.562Z,6.80
2023-04-14T07:07:29.255Z,6.40
2023-04-14T07:09:55.949Z,6.23
2023-04-14T07:12:23.994Z,5.97
2023-04-14T07:14:50.777Z,6.50
2023-04-14T07:17:17.749Z,7.00
2023-04-14T07:19:44.491Z,7.20
2023-04-14T07:22:11.193Z,5.60
2023-04-14T07:24:38.087Z,5.87
2023-04-14T07:27:04.791Z,5.77
2023-04-14T07:29:32.782Z,5.80
2023-04-14T07:31:59.497Z,5.50
2023-04-14T07:34:26.293Z,5.87
2023-04-14T07:36:53.008Z,5.60
2023-04-14T07:39:23.671Z,6.13
2023-04-14T07:41:50.579Z,6.47
2023-04-14T07:44:17.387Z,6.60
2023-04-14T07:46:45.535Z,5.77
2023-04-14T07:49:12.377Z,6.40
2023-04-14T07:51:39.050Z,5.93
2023-04-14T07:54:05.735Z,5.30
2023-04-14T07:56:32.438Z,5.97
2023-04-14T07:58:59.285Z,6.80
2023-04-14T08:01:26.364Z,6.27
2023-04-14T08:03:54.607Z,5.80
2023-04-14T08:06:21.530Z,6.10
2023-04-14T08:08:48.194Z,6.17
2023-04-14T08:11:14.858Z,6.03
2023-04-14T08:13:43.241Z,6.07
2023-04-14T08:16:10.097Z,4.60
2023-04-14T08:18:36.895Z,5.20
2023-04-14T08:21:05.112Z,6.40
2023-04-14T08:23:31.856Z,5.40
2023-04-14T08:25:58.586Z,6.20
2023-04-14T08:28:25.307Z,6.03
2023-04-14T08:30:51.987Z,5.73
2023-04-14T08:33:18.644Z,4.40
2023-04-14T08:35:45.423Z,6.60
2023-04-14T08:38:14.149Z,6.60
2023-04-14T08:40:42.435Z,4.10
2023-04-14T08:43:11.175Z,5.13
2023-04-14T08:45:40.380Z,4.63
2023-04-14T08:48:07.934Z,5.60
2023-04-14T08:50:37.476Z,5.23
2023-04-14T08:53:09.001Z,4.60
2023-04-14T08:55:39.955Z,5.43
2023-04-14T08:58:08.329Z,4.40
2023-04-14T09:00:35.155Z,4.90
2023-04-14T09:03:02.430Z,4.97
2023-04-14T09:05:30.079Z,3.57
2023-04-14T09:07:57.820Z,4.00
2023-04-14T09:10:24.735Z,4.90
2023-04-14T09:12:53.952Z,4.10
2023-04-14T09:15:20.678Z,4.50
2023-04-14T09:17:47.432Z,4.27
2023-04-14T09:20:35.296Z,4.80
2023-04-14T09:23:01.125Z,3.87
2023-04-14T09:25:27.933Z,3.70
2023-04-14T09:27:56.303Z,3.33
2023-04-14T09:30:23.278Z,3.47
2023-04-14T09:32:51.929Z,3.73
2023-04-14T09:35:18.884Z,3.60
2023-04-14T09:37:47.104Z,3.27
2023-04-14T09:40:27.736Z,2.37
2023-04-14T09:42:56.878Z,3.77
2023-04-14T09:45:39.695Z,2.90
2023-04-14T09:48:07.371Z,2.87
2023-04-14T09:50:58.170Z,3.43
2023-04-14T09:53:26.127Z,2.60
2023-04-14T09:55:52.933Z,2.90
2023-04-14T09:58:21.315Z,3.60
2023-04-14T10:00:49.104Z,2.53
2023-04-14T10:03:15.846Z,2.80
2023-04-14T10:05:46.678Z,2.40
2023-04-14T10:08:13.491Z,2.10
2023-04-14T10:10:40.196Z,2.20
2023-04-14T10:13:06.921Z,2.00
2023-04-14T10:15:34.995Z,2.43
2023-04-14T10:18:02.190Z,2.00
2023-04-14T10:20:29.773Z,2.77
2023-04-14T10:22:56.914Z,2.03
2023-04-14T10:25:24.814Z,2.30
2023-04-14T10:27:51.731Z,2.40
2023-04-14T10:30:18.820Z,2.10
2023-04-14T10:32:47.778Z,2.00
2023-04-14T10:35:17.210Z,2.53
2023-04-14T10:37:50.726Z,2.60
2023-04-14T10:40:17.674Z,3.10
2023-04-14T10:42:51.730Z,4.20
2023-04-14T10:45:18.873Z,2.70
2023-04-14T10:50:51.210Z,2.27
2023-04-14T10:53:17.951Z,1.67
2023-04-14T10:55:51.638Z,3.10
2023-04-14T10:58:20.738Z,2.40
2023-04-14T11:00:47.527Z,2.60
2023-04-14T11:03:17.747Z,2.73
2023-04-14T11:05:48.047Z,2.40
2023-04-14T11:11:37.345Z,2.17
2023-04-14T11:14:11.250Z,2.63
2023-04-14T11:16:44.713Z,2.17
2023-04-14T11:19:18.790Z,2.83
2023-04-14T11:21:49.335Z,2.57
2023-04-14T11:24:18.277Z,4.10
2023-04-14T11:26:51.101Z,2.87
2023-04-14T11:29:17.823Z,3.20
2023-04-14T11:31:44.696Z,2.53
2023-04-14T11:34:11.484Z,3.33
2023-04-14T11:36:39.644Z,2.43
2023-04-14T11:39:06.349Z,2.60
2023-04-14T11:41:33.388Z,2.93
2023-04-14T11:44:00.464Z,2.33
2023-04-14T11:46:27.276Z,1.90
2023-04-14T11:48:54.730Z,2.90
2023-04-14T11:51:21.549Z,2.83
2023-04-14T11:53:49.595Z,2.53
2023-04-14T11:56:16.435Z,2.87
2023-04-14T11:58:43.244Z,2.43
2023-04-14T12:01:10.033Z,2.20
2023-04-14T12:03:37.136Z,2.60
2023-04-14T12:06:04.817Z,1.97
2023-04-14T12:08:32.410Z,2.37
2023-04-14T12:11:11.770Z,1.77
2023-04-14T12:13:40.335Z,1.93
2023-04-14T12:16:07.228Z,2.30
2023-04-14T12:18:34.372Z,2.50
2023-04-14T12:21:02.216Z,1.73
2023-04-14T12:23:29.200Z,1.80
2023-04-14T12:25:56.043Z,1.53
2023-04-14T12:28:26.858Z,1.60
2023-04-14T12:30:56.033Z,1.10
2023-04-14T12:33:23.220Z,1.63
2023-04-14T12:35:50.832Z,2.23
2023-04-14T12:38:17.649Z,1.60
2023-04-14T12:40:45.445Z,1.47
2023-04-14T12:43:12.356Z,1.83
2023-04-14T12:45:44.305Z,2.20
2023-04-14T12:48:12.285Z,2.00
2023-04-14T12:50:39.374Z,1.40
2023-04-14T12:53:24.279Z,1.33
2023-04-14T12:56:04.775Z,2.00
2023-04-14T12:58:31.487Z,1.70
2023-04-14T13:00:59.557Z,1.80
2023-04-14T13:03:42.836Z,1.23
2023-04-14T13:06:11.088Z,1.60
2023-04-14T13:08:37.869Z,1.60
2023-04-14T13:11:04.736Z,1.77
2023-04-14T13:13:31.357Z,1.60
2023-04-14T13:16:13.659Z,1.40
2023-04-14T13:18:42.451Z,1.37
2023-04-14T13:21:09.769Z,1.50
2023-04-14T13:23:36.550Z,1.90
2023-04-14T13:26:03.519Z,1.57
2023-04-14T13:28:30.330Z,1.90
2023-04-14T13:30:59.050Z,1.37
2023-04-14T13:33:26.413Z,1.83
2023-04-14T13:35:53.657Z,1.50
2023-04-14T13:38:20.419Z,1.60
2023-04-14T13:40:48.238Z,1.77
2023-04-14T13:43:16.369Z,1.53
2023-04-14T13:45:43.155Z,1.27
2023-04-14T13:48:11.255Z,1.67
2023-04-14T13:50:37.999Z,1.80
2023-04-14T13:53:04.718Z,1.20
2023-04-14T13:55:31.422Z,1.40
2023-04-14T13:57:58.076Z,1.60
2023-04-14T14:00:24.838Z,1.40
2023-04-14T14:02:51.596Z,1.70
2023-04-14T14:05:19.749Z,1.03
2023-04-14T14:07:46.506Z,1.17
2023-04-14T14:10:13.196Z,1.20
2023-04-14T14:12:39.872Z,1.10
2023-04-14T14:15:07.832Z,0.93
2023-04-14T14:17:34.638Z,1.03
2023-04-14T14:20:01.365Z,0.70
2023-04-14T14:22:29.416Z,0.73
2023-04-14T14:25:06.886Z,1.10
2023-04-14T14:27:37.967Z,1.00
2023-04-14T14:30:05.653Z,0.90
2023-04-14T14:32:32.608Z,0.90
2023-04-14T14:34:59.385Z,1.13
2023-04-14T14:37:26.064Z,1.07
2023-04-14T14:39:54.366Z,1.20
2023-04-14T14:42:21.060Z,1.27
2023-04-14T14:44:47.858Z,1.20
2023-04-14T14:47:14.610Z,1.30
2023-04-14T14:49:48.823Z,1.10
2023-04-14T14:52:23.677Z,1.10
2023-04-14T14:54:50.325Z,1.30
2023-04-14T14:57:18.363Z,1.50
2023-04-14T14:59:45.057Z,1.30
2023-04-14T15:02:11.778Z,1.27
2023-04-14T15:04:38.595Z,0.97
2023-04-14T15:07:05.566Z,1.10
2023-04-14T15:09:32.263Z,1.13
2023-04-14T15:11:58.945Z,1.20
2023-04-14T15:14:27.015Z,1.00
2023-04-14T15:16:53.681Z,1.10
2023-04-14T15:19:20.423Z,1.53
2023-04-14T15:21:47.116Z,0.40
2023-04-14T15:24:13.831Z,1.30
2023-04-14T15:26:40.503Z,1.10
2023-04-14T15:29:07.174Z,1.50
2023-04-14T15:31:35.233Z,1.37
2023-04-14T15:34:02.161Z,1.33
2023-04-14T15:36:29.527Z,1.63
2023-04-14T15:38:56.777Z,1.40
2023-04-14T15:41:23.526Z,1.50
2023-04-14T15:43:50.264Z,1.50
2023-04-14T15:46:17.697Z,1.60
2023-04-14T15:48:45.786Z,1.50
2023-04-14T15:51:12.416Z,1.27
2023-04-14T15:53:39.073Z,1.33
2023-04-14T15:56:06.194Z,1.50
2023-04-14T15:58:32.903Z,1.30
2023-04-14T16:00:59.623Z,1.43
2023-04-14T16:03:26.545Z,1.60
2023-04-14T16:06:01.385Z,1.03
2023-04-14T16:08:28.134Z,1.30
2023-04-14T16:10:55.049Z,1.50
2023-04-14T16:13:21.883Z,1.70
2023-04-14T16:15:48.708Z,1.40
2023-04-14T16:18:15.443Z,1.43
2023-04-14T16:20:42.114Z,1.20
2023-04-14T16:23:10.124Z,1.33
2023-04-14T16:25:36.785Z,1.07
2023-04-14T16:28:03.492Z,1.80
2023-04-14T16:30:30.999Z,1.30
2023-04-14T16:32:57.669Z,1.40
2023-04-14T16:35:24.352Z,1.40
2023-04-14T16:37:51.102Z,1.60
2023-04-14T16:40:19.183Z,1.17
2023-04-14T16:42:45.817Z,1.30
2023-04-14T16:45:12.516Z,1.30
2023-04-14T16:47:39.193Z,1.70
2023-04-14T16:50:06.684Z,1.80
2023-04-14T16:52:33.348Z,1.27
2023-04-14T16:55:00.994Z,1.20
2023-04-14T16:57:29.187Z,1.30
2023-04-14T16:59:55.823Z,1.30
2023-04-14T17:02:22.805Z,1.60
2023-04-14T17:04:49.721Z,1.47
2023-04-14T17:07:16.555Z,1.30
2023-04-14T17:09:43.219Z,1.50
2023-04-14T17:12:09.955Z,1.80
2023-04-14T17:14:37.955Z,1.40
2023-04-14T17:17:04.607Z,0.97
2023-04-14T17:19:31.260Z,2.53
2023-04-14T17:21:57.887Z,1.80
2023-04-14T17:24:24.524Z,1.50
2023-04-14T17:26:51.279Z,3.17
2023-04-14T17:29:18.010Z,2.27
2023-04-14T17:31:46.177Z,1.53
2023-04-14T17:34:12.999Z,1.77
2023-04-14T17:36:39.714Z,1.60
2023-04-14T17:39:07.834Z,1.50
2023-04-14T17:41:34.547Z,1.30
2023-04-14T17:44:02.825Z,2.70
2023-04-14T17:46:29.600Z,1.97
2023-04-14T17:48:57.593Z,1.63
2023-04-14T17:51:24.269Z,2.13
2023-04-14T17:53:51.065Z,2.13
2023-04-14T17:56:17.709Z,1.77
2023-04-14T17:58:45.727Z,2.23
2023-04-14T18:01:12.448Z,2.70
2023-04-14T18:03:39.178Z,1.77
2023-04-14T18:06:07.289Z,2.90
2023-04-14T18:08:33.936Z,2.70
2023-04-14T18:11:00.698Z,3.10
2023-04-14T18:13:27.322Z,2.10
2023-04-14T18:15:53.981Z,2.00
2023-04-14T18:18:20.609Z,2.17
2023-04-14T18:20:49.339Z,2.60
2023-04-14T18:23:17.301Z,3.33
2023-04-14T18:28:13.513Z,1.90
2023-04-14T18:30:40.207Z,3.07
2023-04-14T18:33:06.965Z,2.80
2023-04-14T18:35:33.679Z,2.70
2023-04-14T18:38:00.376Z,2.90
2023-04-14T18:40:28.373Z,6.70
2023-04-14T18:42:55.022Z,5.03
2023-04-14T18:45:21.691Z,4.00
2023-04-14T18:47:48.408Z,2.90
2023-04-14T18:50:16.857Z,2.00
2023-04-14T18:52:43.544Z,2.10
2023-04-14T18:55:10.266Z,2.50
2023-04-14T18:57:39.787Z,2.60
2023-04-14T19:00:09.034Z,3.03
2023-04-14T19:02:35.914Z,2.17
2023-04-14T19:05:02.790Z,2.93
2023-04-14T19:07:29.612Z,2.53
2023-04-14T19:09:56.352Z,1.70
2023-04-14T19:12:28.664Z,2.57
2023-04-14T19:14:56.923Z,2.90
2023-04-14T19:17:23.735Z,2.00
2023-04-14T19:19:50.504Z,2.40
2023-04-14T19:22:17.318Z,2.60
2023-04-14T19:24:43.949Z,2.83
2023-04-14T19:27:10.653Z,1.87
2023-04-14T19:29:37.296Z,2.60
2023-04-14T19:32:05.438Z,2.90
2023-04-14T19:34:32.072Z,2.17
2023-04-14T19:36:58.746Z,2.33
2023-04-14T19:39:25.373Z,2.27
2023-04-14T19:41:53.753Z,2.77
2023-04-14T19:44:20.476Z,2.97
2023-04-14T19:46:47.161Z,2.93
2023-04-14T19:49:15.224Z,2.70
2023-04-14T19:51:43.235Z,3.70
2023-04-14T19:54:10.013Z,3.10
2023-04-14T19:56:36.892Z,3.30
2023-04-14T19:59:03.616Z,2.97
2023-04-14T20:01:30.339Z,2.70
2023-04-14T20:04:06.921Z,2.50
2023-04-14T20:06:40.503Z,3.20
2023-04-14T20:09:07.214Z,3.07
2023-04-14T20:11:33.968Z,3.23
2023-04-14T20:14:00.591Z,2.97
2023-04-14T20:16:27.562Z,3.23
2023-04-14T20:18:54.267Z,2.77
2023-04-14T20:21:20.925Z,3.57
2023-04-14T20:23:48.984Z,2.93
2023-04-14T20:26:15.708Z,3.30
2023-04-14T20:28:42.564Z,3.27
2023-04-14T20:31:09.256Z,3.37
2023-04-14T20:33:36.197Z,2.70
2023-04-14T20:36:02.953Z,3.40
2023-04-14T20:38:29.619Z,4.10
2023-04-14T20:40:57.663Z,3.33
2023-04-14T20:43:25.122Z,3.70
2023-04-14T20:45:53.593Z,3.10
2023-04-14T20:48:20.258Z,3.10
2023-04-14T20:50:48.625Z,3.77
2023-04-14T20:53:15.415Z,3.47
2023-04-14T20:55:42.069Z,3.40
2023-04-14T20:58:10.180Z,2.90
2023-04-14T21:00:38.758Z,3.90
2023-04-14T21:03:05.776Z,3.40
2023-04-14T21:05:32.810Z,3.70
2023-04-14T21:07:59.485Z,4.03
2023-04-14T21:10:26.215Z,3.70
2023-04-14T21:15:25.462Z,3.70
2023-04-14T21:15:53.642Z,3.73
2023-04-14T21:18:22.672Z,4.63
2023-04-14T21:20:49.340Z,3.90
2023-04-14T21:23:16.033Z,4.17
2023-04-14T21:25:42.765Z,4.23
2023-04-14T21:28:09.417Z,3.83
2023-04-14T21:30:36.067Z,3.93
2023-04-14T21:33:05.475Z,4.00
2023-04-14T21:35:34.102Z,3.20
2023-04-14T21:38:00.786Z,4.20
2023-04-14T21:40:27.416Z,4.53
2023-04-14T21:42:54.102Z,4.70
2023-04-14T21:45:20.788Z,4.10
2023-04-14T21:47:47.469Z,4.60
2023-04-14T21:50:15.491Z,3.80
2023-04-14T21:52:42.152Z,4.63
2023-04-14T21:55:09.291Z,4.63
2023-04-14T21:57:45.602Z,5.03
2023-04-14T22:00:16.730Z,5.33
2023-04-14T22:02:43.558Z,5.23
2023-04-14T22:05:10.631Z,5.57
2023-04-14T22:07:38.647Z,4.13
2023-04-14T22:10:05.905Z,5.07
2023-04-14T22:12:32.845Z,4.13
2023-04-14T22:15:00.546Z,4.50
2023-04-14T22:17:27.314Z,4.53
2023-04-14T22:19:54.094Z,5.17
2023-04-14T22:22:20.828Z,4.60
2023-04-14T22:24:50.176Z,4.83
2023-04-14T22:27:17.010Z,4.20
2023-04-14T22:29:43.666Z,4.80
2023-04-14T22:32:10.384Z,4.53
2023-04-14T22:34:37.040Z,4.50
2023-04-14T22:37:03.823Z,3.70
2023-04-14T22:39:30.502Z,4.47
2023-04-14T22:41:58.505Z,3.53
2023-04-14T22:44:25.178Z,3.73
2023-04-14T22:46:51.902Z,3.70
2023-04-14T22:49:18.541Z,3.10
2023-04-14T22:51:45.220Z,3.93
2023-04-14T22:54:11.855Z,3.60
2023-04-14T22:56:40.673Z,3.43
2023-04-14T22:59:08.836Z,4.60
2023-04-14T23:01:35.533Z,4.03
2023-04-14T23:04:02.534Z,3.30
2023-04-14T23:06:29.331Z,3.70
2023-04-14T23:08:58.298Z,3.23
2023-04-14T23:11:25.096Z,4.57
2023-04-14T23:13:51.795Z,3.80
2023-04-14T23:16:20.126Z,3.70
2023-04-14T23:18:47.096Z,4.03
2023-04-14T23:21:13.744Z,4.60
2023-04-14T23:23:40.407Z,4.30
2023-04-14T23:26:07.087Z,4.20
2023-04-14T23:28:33.808Z,4.40
2023-04-14T23:31:00.731Z,4.47
2023-04-14T23:33:28.781Z,4.80
2023-04-14T23:35:57.834Z,5.10
2023-04-14T23:38:24.573Z,5.00
2023-04-14T23:40:51.226Z,4.40
2023-04-14T23:43:17.866Z,3.97
2023-04-14T23:45:44.523Z,4.90
2023-04-14T23:48:11.199Z,4.20
2023-04-14T23:50:59.066Z,3.97
2023-04-14T23:53:26.051Z,4.87
2023-04-14T23:55:52.855Z,4.20
2023-04-14T23:58:26.423Z,3.80
